Terminal Aerodrome Forecast
Issued by NWS Charleston, SC

Home | Current Version | Previous Version | Text Only | Print | Product List | Glossary On
Versions: 1 2 3 4 5 6 7 8 9 10 11 12 13 14 15 16 17 18 19
000
FTUS42 KCHS 072323
TAFCHS
TAF
KCHS 072323Z 0800/0824 30009KT P6SM FEW090
     FM080800 27005KT P6SM SKC
     FM081600 25010KT P6SM SKC
     FM081800 23017G24KT P6SM SCT035=

USA.gov is the U.S. government's official web portal to all federal, state and local government web resources and services.